Time;durP1;ratioP1;P1;durP2;ratioP2;P2;SDS_P1;SDS_P2;PMS_P1;PMS_P2;Temp;Humidity;BMP_temperature;BMP_pressure;BME280_temperature;BME280_humidity;BME280_pressure;Samples;Min_cycle;Max_cycle;Signal;HPM_P1;HPM_P2
2022/08/05 00:00:41;;;;;;;5.75;1.33;;;18.30;99.90;;;;;;4918555;29;20048;-84
2022/08/05 00:03:27;;;;;;;4.97;1.50;;;18.30;99.90;;;;;;4903598;29;20074;-87
2022/08/05 00:06:13;;;;;;;4.20;1.27;;;18.40;99.90;;;;;;4917392;29;20578;-84
2022/08/05 00:09:00;;;;;;;5.05;1.75;;;18.40;99.90;;;;;;4916136;29;20048;-82
2022/08/05 00:11:48;;;;;;;4.25;1.17;;;18.30;99.90;;;;;;4916081;29;20067;-81
2022/08/05 00:14:34;;;;;;;8.85;1.60;;;18.30;99.90;;;;;;4916220;29;20056;-78
2022/08/05 00:17:20;;;;;;;6.97;1.25;;;18.30;99.90;;;;;;4916221;29;20629;-77
2022/08/05 00:20:07;;;;;;;5.60;1.30;;;18.30;99.90;;;;;;4923153;29;20079;-80
2022/08/05 00:22:53;;;;;;;6.43;1.35;;;18.30;99.90;;;;;;4922791;29;20048;-77
2022/08/05 00:25:39;;;;;;;6.43;1.30;;;18.30;99.90;;;;;;4916470;29;20052;-80
2022/08/05 00:28:25;;;;;;;7.35;2.20;;;18.30;99.90;;;;;;4899737;29;20168;-78
2022/08/05 00:31:12;;;;;;;3.75;1.58;;;18.30;99.90;;;;;;4916322;29;20419;-78
2022/08/05 00:33:58;;;;;;;4.80;1.35;;;18.30;99.90;;;;;;4899063;29;20048;-79
2022/08/05 00:36:44;;;;;;;4.45;1.40;;;18.20;99.90;;;;;;4917035;29;20048;-86
2022/08/05 00:39:30;;;;;;;5.65;1.60;;;18.20;99.90;;;;;;4922614;29;20134;-81
2022/08/05 00:42:38;;;;;;;4.00;1.20;;;18.20;99.90;;;;;;4904796;29;20059;-80
2022/08/05 00:45:24;;;;;;;6.25;1.60;;;18.30;99.90;;;;;;4916502;29;20048;-81
2022/08/05 00:48:13;;;;;;;4.47;1.38;;;18.20;99.90;;;;;;4917460;29;20084;-84
2022/08/05 00:50:59;;;;;;;7.10;1.90;;;18.20;99.90;;;;;;4918061;29;20047;-84
2022/08/05 00:53:46;;;;;;;4.32;1.52;;;18.20;99.90;;;;;;4904626;29;20083;-81
2022/08/05 00:56:33;;;;;;;7.85;1.75;;;18.20;99.90;;;;;;4916687;29;20133;-83
2022/08/05 00:59:20;;;;;;;6.85;1.50;;;18.20;99.90;;;;;;4922079;29;20051;-84
2022/08/05 01:02:06;;;;;;;6.78;1.75;;;18.20;99.90;;;;;;4919579;29;20134;-83
2022/08/05 01:04:52;;;;;;;4.43;1.42;;;18.20;99.90;;;;;;4925602;29;20056;-87
2022/08/05 01:07:38;;;;;;;6.72;1.60;;;18.20;99.90;;;;;;4924682;29;20056;-80
2022/08/05 01:10:34;;;;;;;5.88;1.70;;;18.20;99.90;;;;;;4925359;29;20119;-82
2022/08/05 01:13:56;;;;;;;5.55;1.27;;;18.30;99.90;;;;;;4908153;29;20115;-85
2022/08/05 01:17:05;;;;;;;5.13;1.52;;;18.30;99.90;;;;;;4923433;29;20056;-85
2022/08/05 01:19:54;;;;;;;5.30;1.08;;;18.30;99.90;;;;;;4919229;29;20048;-88
2022/08/05 01:23:20;;;;;;;4.70;1.15;;;18.30;99.90;;;;;;4903686;29;20062;-85
2022/08/05 01:26:32;;;;;;;5.85;1.38;;;18.30;99.90;;;;;;4906041;29;20156;-83
2022/08/05 01:29:25;;;;;;;2.50;1.10;;;18.20;99.90;;;;;;4895674;29;20076;-85
2022/08/05 01:32:17;;;;;;;7.00;1.25;;;18.20;99.90;;;;;;4904849;29;20104;-81
2022/08/05 01:35:12;;;;;;;5.55;1.20;;;18.20;99.90;;;;;;4916497;29;20103;-86
2022/08/05 01:38:01;;;;;;;8.00;2.47;;;18.20;99.90;;;;;;4915729;29;20056;-84
2022/08/05 01:40:48;;;;;;;8.02;1.17;;;18.10;99.90;;;;;;4916248;29;20055;-82
2022/08/05 01:43:36;;;;;;;7.15;1.30;;;18.10;99.90;;;;;;4916278;29;20048;-85
2022/08/05 01:46:23;;;;;;;6.80;1.48;;;18.10;99.90;;;;;;4901462;29;20056;-78
2022/08/05 01:49:17;;;;;;;3.45;0.90;;;18.10;99.90;;;;;;4917345;29;20052;-78
2022/08/05 01:52:03;;;;;;;5.85;1.00;;;18.00;99.90;;;;;;4917263;29;20063;-78
2022/08/05 01:54:56;;;;;;;2.78;0.77;;;18.00;99.90;;;;;;4915955;29;20060;-78
2022/08/05 01:57:46;;;;;;;10.63;1.95;;;18.00;99.90;;;;;;4901772;29;20115;-83
2022/08/05 02:00:37;;;;;;;7.13;1.15;;;17.90;99.90;;;;;;4913553;29;20408;-82
2022/08/05 02:03:32;;;;;;;1.85;0.98;;;17.90;99.90;;;;;;4914974;29;20044;-86
2022/08/05 02:06:19;;;;;;;2.97;1.13;;;17.90;99.90;;;;;;4913772;29;20048;-83
2022/08/05 02:09:06;;;;;;;5.25;1.10;;;17.80;99.90;;;;;;4918088;29;20528;-82
2022/08/05 02:12:03;;;;;;;4.97;1.13;;;17.70;99.90;;;;;;4898299;29;20048;-84
2022/08/05 02:15:00;;;;;;;3.28;1.00;;;17.70;99.90;;;;;;4920486;29;20416;-85
2022/08/05 02:18:04;;;;;;;6.25;1.17;;;17.60;99.90;;;;;;4918752;29;20150;-80
2022/08/05 02:21:01;;;;;;;3.60;1.15;;;17.60;99.90;;;;;;4915008;29;20059;-78
2022/08/05 02:23:55;;;;;;;2.67;1.00;;;17.60;99.90;;;;;;4905180;29;20146;-79
2022/08/05 02:26:50;;;;;;;3.72;1.10;;;17.50;99.90;;;;;;4926372;29;20060;-85
2022/08/05 02:29:40;;;;;;;3.95;2.28;;;17.60;99.90;;;;;;4924102;29;20052;-83
2022/08/05 02:32:30;;;;;;;5.25;1.17;;;17.50;99.90;;;;;;4917494;29;20052;-77
2022/08/05 02:35:20;;;;;;;8.70;1.33;;;17.50;99.90;;;;;;4919123;29;20052;-83
2022/08/05 02:38:07;;;;;;;4.70;1.30;;;17.50;99.90;;;;;;4917853;29;20055;-84
2022/08/05 02:40:54;;;;;;;4.53;0.90;;;17.50;99.90;;;;;;4917548;29;20052;-86
2022/08/05 02:43:42;;;;;;;3.67;1.02;;;17.50;99.90;;;;;;4924431;29;20056;-77
2022/08/05 02:46:29;;;;;;;4.30;1.02;;;17.50;99.90;;;;;;4931642;29;20056;-83
2022/08/05 02:49:16;;;;;;;2.67;0.90;;;17.50;99.90;;;;;;4927419;29;20055;-83
2022/08/05 02:52:06;;;;;;;3.72;1.10;;;17.50;99.90;;;;;;4923419;29;20063;-85
2022/08/05 02:54:54;;;;;;;3.95;1.17;;;17.50;99.90;;;;;;4902606;29;20060;-78
2022/08/05 02:57:42;;;;;;;1.83;0.80;;;17.50;99.90;;;;;;4918055;29;20059;-80
2022/08/05 03:00:28;;;;;;;2.95;0.70;;;17.50;99.90;;;;;;4920012;29;20059;-84
2022/08/05 03:03:19;;;;;;;2.92;0.80;;;17.50;99.90;;;;;;4904205;29;20044;-84
2022/08/05 03:06:09;;;;;;;4.18;1.10;;;17.50;99.90;;;;;;4905710;29;20089;-82
2022/08/05 03:08:57;;;;;;;4.22;0.98;;;17.50;99.90;;;;;;4918037;29;20139;-85
2022/08/05 03:11:43;;;;;;;4.30;0.98;;;17.60;99.90;;;;;;4918554;29;20045;-85
2022/08/05 03:14:29;;;;;;;2.80;0.88;;;17.60;99.90;;;;;;4922509;29;20168;-84
2022/08/05 03:17:15;;;;;;;7.07;1.60;;;17.50;99.90;;;;;;4917439;29;20060;-83
2022/08/05 03:20:03;;;;;;;3.00;0.90;;;17.60;99.90;;;;;;4906408;29;20348;-82
2022/08/05 03:22:49;;;;;;;3.50;0.95;;;17.60;99.90;;;;;;4918486;29;20051;-85
2022/08/05 03:25:37;;;;;;;4.13;0.98;;;17.60;99.90;;;;;;4900335;29;20165;-82
2022/08/05 03:28:24;;;;;;;5.43;1.45;;;17.60;99.90;;;;;;4899889;29;20135;-78
2022/08/05 03:31:11;;;;;;;2.95;0.90;;;17.60;99.90;;;;;;4917004;29;20064;-81
2022/08/05 03:33:58;;;;;;;6.93;2.05;;;17.60;99.90;;;;;;4916436;29;20402;-79
2022/08/05 03:36:44;;;;;;;6.53;1.48;;;17.50;99.90;;;;;;4911709;29;20055;-80
2022/08/05 03:39:31;;;;;;;3.28;1.08;;;17.50;99.90;;;;;;4927972;29;20135;-79
2022/08/05 03:42:17;;;;;;;4.45;1.30;;;17.60;99.90;;;;;;4926727;29;20076;-77
2022/08/05 03:45:03;;;;;;;3.13;1.02;;;17.50;99.90;;;;;;4925853;29;20059;-78
2022/08/05 03:47:50;;;;;;;4.20;1.10;;;17.60;99.90;;;;;;4924305;29;20090;-85
2022/08/05 03:50:54;;;;;;;3.63;1.20;;;17.50;99.90;;;;;;4922183;29;20080;-82
2022/08/05 03:53:49;;;;;;;4.10;1.30;;;17.50;99.90;;;;;;4902728;29;20055;-77
2022/08/05 03:56:46;;;;;;;3.88;0.93;;;17.50;99.90;;;;;;4902048;29;20086;-79
2022/08/05 03:59:45;;;;;;;4.45;0.93;;;17.40;99.90;;;;;;4922431;29;20062;-78
2022/08/05 04:02:33;;;;;;;2.83;1.02;;;17.40;99.90;;;;;;4915713;29;20504;-80
2022/08/05 04:05:20;;;;;;;3.30;0.93;;;17.40;99.90;;;;;;4899781;29;20052;-79
2022/08/05 04:08:09;;;;;;;4.93;1.25;;;17.30;99.90;;;;;;4915822;29;20048;-81
2022/08/05 04:10:57;;;;;;;2.42;0.80;;;17.30;99.90;;;;;;4917680;29;20110;-80
2022/08/05 04:13:44;;;;;;;4.13;0.95;;;17.20;99.90;;;;;;4923940;29;20044;-83
2022/08/05 04:16:36;;;;;;;3.05;0.95;;;17.20;99.90;;;;;;4921545;29;20084;-83
2022/08/05 04:19:24;;;;;;;3.45;0.95;;;17.10;99.90;;;;;;4926322;29;20116;-82
2022/08/05 04:22:10;;;;;;;3.85;1.10;;;17.10;99.90;;;;;;4926384;29;20080;-82
2022/08/05 04:24:56;;;;;;;3.92;0.90;;;17.10;99.90;;;;;;4929032;29;20087;-80
2022/08/05 04:27:42;;;;;;;3.78;1.33;;;17.00;99.90;;;;;;4930463;29;20079;-83
2022/08/05 04:30:29;;;;;;;3.95;0.90;;;17.00;99.90;;;;;;4909915;29;20070;-83
2022/08/05 04:33:15;;;;;;;3.20;0.90;;;17.00;99.90;;;;;;4905648;29;20054;-82
2022/08/05 04:36:02;;;;;;;3.67;0.90;;;17.00;99.90;;;;;;4928247;29;20192;-84
2022/08/05 04:38:48;;;;;;;4.25;1.30;;;17.00;99.90;;;;;;4904843;29;20060;-83
2022/08/05 04:41:37;;;;;;;4.70;1.17;;;17.10;99.90;;;;;;4922964;29;20151;-84
2022/08/05 04:44:24;;;;;;;3.30;1.27;;;17.00;99.90;;;;;;4920980;29;20048;-84
2022/08/05 04:47:12;;;;;;;5.28;1.20;;;17.10;99.90;;;;;;4903719;29;20625;-84
2022/08/05 04:49:58;;;;;;;5.68;1.10;;;17.10;99.90;;;;;;4921285;29;20048;-83
2022/08/05 04:52:45;;;;;;;5.55;1.17;;;17.10;99.90;;;;;;4921322;29;20056;-83
2022/08/05 04:55:31;;;;;;;3.20;0.95;;;17.10;99.90;;;;;;4918282;29;20575;-85
2022/08/05 04:58:17;;;;;;;3.45;0.88;;;17.10;99.90;;;;;;4919869;29;20208;-82
2022/08/05 05:01:04;;;;;;;3.55;1.13;;;17.20;99.90;;;;;;4920660;29;20052;-85
2022/08/05 05:03:50;;;;;;;3.58;1.00;;;17.20;99.90;;;;;;4916746;29;20135;-83
2022/08/05 05:06:37;;;;;;;2.70;1.00;;;17.10;99.90;;;;;;4916667;29;20474;-83
2022/08/05 05:09:23;;;;;;;4.40;1.25;;;17.20;99.90;;;;;;4916725;29;20051;-85
2022/08/05 05:12:10;;;;;;;4.03;1.02;;;17.10;99.90;;;;;;4924313;29;20091;-80
2022/08/05 05:14:56;;;;;;;6.40;1.27;;;17.20;99.90;;;;;;4916840;29;20056;-79
2022/08/05 05:17:42;;;;;;;5.53;1.10;;;17.10;99.90;;;;;;4916519;29;20112;-85
2022/08/05 05:20:29;;;;;;;4.10;1.20;;;17.20;99.90;;;;;;4898422;29;20488;-82
2022/08/05 05:23:15;;;;;;;5.78;1.20;;;17.20;99.90;;;;;;4915917;29;20078;-79
2022/08/05 05:26:01;;;;;;;5.32;1.25;;;17.20;99.90;;;;;;4895759;29;20087;-82
2022/08/05 05:28:48;;;;;;;2.03;0.85;;;17.30;99.90;;;;;;4899619;29;20060;-80
2022/08/05 05:31:34;;;;;;;6.10;1.45;;;17.30;99.90;;;;;;4917007;29;20152;-86
2022/08/05 05:34:20;;;;;;;6.78;1.83;;;17.40;99.90;;;;;;4903879;29;20087;-79
2022/08/05 05:37:07;;;;;;;8.27;1.50;;;17.40;99.90;;;;;;4915654;29;20504;-76
2022/08/05 05:39:54;;;;;;;3.38;1.15;;;17.40;99.90;;;;;;4914912;29;20131;-78
2022/08/05 05:42:40;;;;;;;4.93;1.05;;;17.40;99.90;;;;;;4904753;29;20437;-81
2022/08/05 05:45:26;;;;;;;3.75;0.90;;;17.50;99.90;;;;;;4915043;29;20055;-79
2022/08/05 05:48:12;;;;;;;5.70;1.10;;;17.70;99.90;;;;;;4914090;29;20052;-79
2022/08/05 05:50:58;;;;;;;3.83;1.27;;;17.90;99.90;;;;;;4914342;29;20044;-81
2022/08/05 05:53:44;;;;;;;6.25;1.45;;;18.00;99.90;;;;;;4916199;29;20115;-79
2022/08/05 05:56:31;;;;;;;4.28;0.95;;;18.10;99.90;;;;;;4914293;29;20052;-77
2022/08/05 05:59:17;;;;;;;3.00;1.10;;;18.20;99.90;;;;;;4901051;29;20060;-79
2022/08/05 06:02:03;;;;;;;3.15;1.10;;;18.30;99.90;;;;;;4918529;29;20505;-78
2022/08/05 06:04:50;;;;;;;5.70;1.10;;;18.50;99.90;;;;;;4905300;29;20054;-81
2022/08/05 06:07:39;;;;;;;4.18;1.27;;;18.70;99.90;;;;;;4902256;29;20066;-78
2022/08/05 06:10:26;;;;;;;4.97;1.38;;;19.00;99.90;;;;;;4924560;29;20052;-81
2022/08/05 06:13:12;;;;;;;2.75;0.75;;;18.90;99.90;;;;;;4923074;29;20059;-84
2022/08/05 06:15:58;;;;;;;4.55;1.10;;;18.80;99.90;;;;;;4902870;29;20070;-80
2022/08/05 06:18:44;;;;;;;2.28;0.80;;;18.70;99.90;;;;;;4905136;29;20056;-80
2022/08/05 06:21:31;;;;;;;3.42;1.20;;;18.70;99.90;;;;;;4901596;29;20048;-78
2022/08/05 06:24:20;;;;;;;3.03;1.33;;;18.80;99.90;;;;;;4901577;29;20423;-79
2022/08/05 06:27:07;;;;;;;4.22;0.82;;;18.70;99.90;;;;;;4917298;29;20063;-79
2022/08/05 06:29:53;;;;;;;2.58;0.75;;;18.80;99.90;;;;;;4902029;29;20138;-80
2022/08/05 06:32:39;;;;;;;3.78;0.82;;;18.70;99.90;;;;;;4921753;29;20062;-79
2022/08/05 06:35:25;;;;;;;3.05;1.00;;;18.70;99.90;;;;;;4917098;29;20539;-81
2022/08/05 06:38:13;;;;;;;4.13;1.25;;;18.80;99.90;;;;;;4917125;29;20078;-81
2022/08/05 06:41:00;;;;;;;4.22;0.90;;;18.90;99.90;;;;;;4917247;29;20060;-78
2022/08/05 06:43:48;;;;;;;4.07;0.82;;;19.10;99.90;;;;;;4916677;29;20059;-79
2022/08/05 06:46:34;;;;;;;4.57;0.88;;;19.20;99.90;;;;;;4916696;29;20051;-79
2022/08/05 06:49:20;;;;;;;3.08;0.70;;;19.30;99.90;;;;;;4917570;29;20063;-82
2022/08/05 06:52:07;;;;;;;4.30;1.17;;;19.30;99.90;;;;;;4919043;29;20059;-78
2022/08/05 06:54:53;;;;;;;6.30;0.85;;;19.20;99.90;;;;;;4915253;29;20060;-83
2022/08/05 06:57:41;;;;;;;1.80;0.80;;;19.20;99.90;;;;;;4899361;29;20049;-80
2022/08/05 07:00:27;;;;;;;3.75;0.85;;;19.30;99.90;;;;;;4881094;29;20383;-82
2022/08/05 07:03:13;;;;;;;6.40;0.80;;;19.30;99.90;;;;;;4898703;29;20405;-82
2022/08/05 07:06:02;;;;;;;7.00;1.45;;;19.10;99.90;;;;;;4899484;29;20040;-78
2022/08/05 07:08:49;;;;;;;6.32;1.58;;;19.00;99.90;;;;;;4899972;29;20440;-80
2022/08/05 07:11:35;;;;;;;5.85;0.75;;;18.80;99.90;;;;;;4900526;29;20041;-80
2022/08/05 07:17:27;;;;;;;3.72;1.05;;;19.30;99.90;;;;;;4899065;29;20092;-79
2022/08/05 07:20:13;;;;;;;7.05;1.20;;;19.60;99.90;;;;;;4904398;29;20044;-81
2022/08/05 07:23:00;;;;;;;4.93;0.82;;;19.70;99.90;;;;;;4907670;29;20048;-82
2022/08/05 07:25:46;;;;;;;5.07;1.08;;;19.80;99.90;;;;;;4899394;29;20060;-83
2022/08/05 07:28:32;;;;;;;7.35;1.00;;;20.10;99.90;;;;;;4897723;29;20511;-79
2022/08/05 07:31:18;;;;;;;4.70;0.80;;;20.40;99.90;;;;;;4897476;29;20061;-80
2022/08/05 07:34:05;;;;;;;4.38;0.90;;;20.60;99.90;;;;;;4899532;29;20056;-79
2022/08/05 07:36:51;;;;;;;4.53;1.00;;;20.70;99.90;;;;;;4897143;29;20576;-78
2022/08/05 07:39:37;;;;;;;7.63;1.60;;;20.80;99.90;;;;;;4897077;29;20540;-80
2022/08/05 07:42:24;;;;;;;6.05;0.98;;;21.00;99.90;;;;;;4897113;29;20076;-83
2022/08/05 07:45:10;;;;;;;4.15;0.57;;;21.20;99.90;;;;;;4897002;29;20904;-80
2022/08/05 07:47:56;;;;;;;3.47;0.70;;;21.30;99.90;;;;;;4898184;29;20056;-80
2022/08/05 07:50:42;;;;;;;2.88;0.52;;;21.50;99.90;;;;;;4895995;29;20086;-79
2022/08/05 07:53:29;;;;;;;3.50;0.80;;;21.80;99.90;;;;;;4900298;29;20857;-86
2022/08/05 07:56:15;;;;;;;2.92;0.90;;;21.90;99.90;;;;;;4901498;29;20052;-82
2022/08/05 07:59:01;;;;;;;2.08;0.60;;;21.90;99.90;;;;;;4881512;29;20500;-83
2022/08/05 08:01:48;;;;;;;4.18;0.57;;;21.90;99.90;;;;;;4898777;29;20116;-84
2022/08/05 08:04:34;;;;;;;4.78;0.60;;;21.60;99.90;;;;;;4897510;29;20044;-80
2022/08/05 08:07:20;;;;;;;7.20;0.90;;;21.60;99.90;;;;;;4898990;29;20052;-81
2022/08/05 08:10:07;;;;;;;2.95;0.70;;;21.70;99.90;;;;;;4906094;29;20053;-82
2022/08/05 08:12:53;;;;;;;1.92;0.50;;;21.60;99.90;;;;;;4898348;29;20445;-85
2022/08/05 08:15:40;;;;;;;3.67;0.70;;;21.70;99.90;;;;;;4898248;29;20390;-87
2022/08/05 08:18:26;;;;;;;3.40;0.60;;;21.70;99.90;;;;;;4901533;29;20148;-85
2022/08/05 08:21:12;;;;;;;6.30;0.88;;;21.50;99.90;;;;;;4900534;29;20145;-83
2022/08/05 08:23:59;;;;;;;3.30;0.57;;;21.70;99.90;;;;;;4897544;29;20136;-83
2022/08/05 08:26:45;;;;;;;4.53;0.77;;;21.80;99.90;;;;;;4897740;29;20087;-81
2022/08/05 08:29:31;;;;;;;2.15;0.50;;;21.70;99.90;;;;;;4897367;29;20088;-82
2022/08/05 08:32:17;;;;;;;2.30;0.43;;;21.80;99.90;;;;;;4897111;29;20067;-81
2022/08/05 08:35:04;;;;;;;2.88;0.55;;;21.90;99.90;;;;;;4896231;29;20057;-85
2022/08/05 08:37:51;;;;;;;3.08;0.50;;;22.00;99.90;;;;;;4895392;29;20053;-82
2022/08/05 08:40:38;;;;;;;5.22;0.45;;;22.20;99.90;;;;;;4899831;29;20048;-83
2022/08/05 08:43:26;;;;;;;4.63;0.55;;;22.20;99.90;;;;;;4901956;29;20048;-82
2022/08/05 08:46:12;;;;;;;5.28;0.60;;;22.20;99.90;;;;;;4901968;29;20057;-85
2022/08/05 08:49:01;;;;;;;2.25;0.50;;;22.20;99.90;;;;;;4897092;29;20136;-82
2022/08/05 08:51:52;;;;;;;1.92;0.47;;;22.30;99.90;;;;;;4895722;29;20053;-89
2022/08/05 08:54:39;;;;;;;3.72;0.52;;;22.40;99.90;;;;;;4895695;29;20056;-83
2022/08/05 08:57:25;;;;;;;1.80;0.30;;;22.60;99.70;;;;;;4898935;29;20045;-82
2022/08/05 09:00:12;;;;;;;2.22;0.40;;;22.70;99.30;;;;;;4898972;29;20057;-87
2022/08/05 09:02:59;;;;;;;3.40;0.70;;;22.80;99.20;;;;;;4900861;29;20049;-81
2022/08/05 09:05:47;;;;;;;3.63;0.90;;;23.10;99.40;;;;;;4895826;29;20071;-83
2022/08/05 09:08:33;;;;;;;4.57;0.95;;;23.10;98.90;;;;;;4880564;29;20048;-78
2022/08/05 09:11:20;;;;;;;2.10;0.40;;;23.40;98.20;;;;;;4897049;29;20044;-78
2022/08/05 09:14:07;;;;;;;3.10;0.60;;;23.40;98.00;;;;;;4896496;29;20052;-82
2022/08/05 09:16:53;;;;;;;2.38;0.60;;;23.70;97.30;;;;;;4897260;29;20067;-78
2022/08/05 09:19:39;;;;;;;4.20;0.55;;;23.40;96.50;;;;;;4880896;29;20056;-76
2022/08/05 09:22:26;;;;;;;4.03;0.50;;;23.70;96.80;;;;;;4880363;29;20067;-79
2022/08/05 09:25:19;;;;;;;3.88;0.47;;;23.50;95.90;;;;;;4900410;29;20052;-78
2022/08/05 09:28:22;;;;;;;1.35;0.22;;;23.40;96.00;;;;;;4899380;29;20048;-77
2022/08/05 09:31:14;;;;;;;1.50;0.30;;;23.20;95.90;;;;;;4904051;29;20103;-80
2022/08/05 09:34:06;;;;;;;1.95;0.43;;;23.00;95.90;;;;;;4870997;29;20049;-80
2022/08/05 09:36:52;;;;;;;6.55;0.50;;;23.10;96.40;;;;;;4900616;29;20139;-80
2022/08/05 09:39:38;;;;;;;2.70;0.65;;;22.90;96.10;;;;;;4899188;29;20147;-81
2022/08/05 09:42:24;;;;;;;4.28;0.88;;;23.10;96.30;;;;;;4902805;29;20593;-79
2022/08/05 09:45:11;;;;;;;3.17;0.30;;;23.10;96.30;;;;;;4897956;29;20053;-80
2022/08/05 09:47:57;;;;;;;3.17;0.70;;;23.60;96.50;;;;;;4900738;29;20528;-82
2022/08/05 09:50:49;;;;;;;2.47;0.40;;;23.70;95.70;;;;;;4880190;29;20552;-80
2022/08/05 09:53:52;;;;;;;1.90;0.30;;;24.00;94.10;;;;;;4896829;29;20068;-77
2022/08/05 09:56:38;;;;;;;1.73;0.40;;;24.00;93.70;;;;;;4909833;29;20069;-87
2022/08/05 09:59:25;;;;;;;2.05;0.30;;;24.10;94.10;;;;;;4898662;29;20082;-83
2022/08/05 10:02:11;;;;;;;0.75;0.20;;;23.90;94.00;;;;;;4909610;29;20049;-77
2022/08/05 10:05:08;;;;;;;4.07;0.50;;;24.30;93.90;;;;;;4898011;29;20193;-79
2022/08/05 10:07:58;;;;;;;3.08;0.57;;;24.50;92.70;;;;;;4897495;29;20087;-78
2022/08/05 10:10:48;;;;;;;4.88;0.40;;;24.70;92.90;;;;;;4896955;29;20053;-81
2022/08/05 10:13:36;;;;;;;2.78;0.50;;;24.80;92.40;;;;;;4897018;29;20052;-80
2022/08/05 10:16:35;;;;;;;4.55;0.63;;;24.20;93.00;;;;;;4897371;29;20084;-77
2022/08/05 10:19:26;;;;;;;1.48;0.20;;;24.30;93.40;;;;;;4913908;29;20625;-80
2022/08/05 10:22:12;;;;;;;4.78;0.32;;;24.30;93.10;;;;;;4899771;29;20526;-76
2022/08/05 10:24:58;;;;;;;4.15;0.30;;;24.50;92.20;;;;;;4898683;29;20052;-77
2022/08/05 10:27:46;;;;;;;2.40;0.50;;;24.50;91.80;;;;;;4897071;29;20049;-86
2022/08/05 10:30:33;;;;;;;3.25;0.30;;;24.40;90.90;;;;;;4900830;29;20059;-82
2022/08/05 10:33:22;;;;;;;1.92;0.38;;;24.50;91.00;;;;;;4902769;29;20056;-80
2022/08/05 10:36:09;;;;;;;2.40;0.50;;;24.50;91.20;;;;;;4908073;29;20058;-78
2022/08/05 10:39:00;;;;;;;3.22;0.40;;;24.70;92.20;;;;;;4911503;29;20049;-78
2022/08/05 10:41:54;;;;;;;3.47;0.40;;;24.90;92.10;;;;;;4901337;29;20568;-83
2022/08/05 10:44:45;;;;;;;4.65;0.52;;;24.90;92.60;;;;;;4897227;29;20087;-77
2022/08/05 10:47:34;;;;;;;2.45;0.40;;;24.50;93.00;;;;;;4910362;29;20049;-83
2022/08/05 10:50:21;;;;;;;5.15;0.60;;;24.90;92.80;;;;;;4899538;29;20824;-79
2022/08/05 10:53:34;;;;;;;3.20;0.52;;;24.70;91.90;;;;;;4897640;29;20056;-82
2022/08/05 10:56:27;;;;;;;1.52;0.55;;;24.70;92.00;;;;;;4885757;29;20456;-79
2022/08/05 10:59:26;;;;;;;2.38;0.43;;;24.70;92.70;;;;;;4882035;29;20143;-79
2022/08/05 11:02:13;;;;;;;2.75;0.47;;;25.30;92.50;;;;;;4868071;29;20057;-80
2022/08/05 11:05:04;;;;;;;13.20;0.90;;;25.40;91.60;;;;;;4868100;29;20557;-82
2022/08/05 11:08:02;;;;;;;3.47;0.55;;;25.30;91.30;;;;;;4880740;29;20052;-80
2022/08/05 11:10:48;;;;;;;6.15;0.63;;;25.40;92.20;;;;;;4881050;29;20056;-87
2022/08/05 11:13:42;;;;;;;2.53;0.65;;;25.00;92.10;;;;;;4884284;29;20061;-80
2022/08/05 11:16:28;;;;;;;2.53;0.30;;;24.80;92.70;;;;;;4884284;29;20049;-81
2022/08/05 11:19:29;;;;;;;4.05;0.52;;;25.00;93.30;;;;;;4880793;29;20064;-80
2022/08/05 11:22:47;;;;;;;2.90;0.38;;;25.00;92.30;;;;;;4863375;29;20064;-78
2022/08/05 11:25:37;;;;;;;2.30;0.30;;;25.30;92.60;;;;;;4864562;29;20083;-83
2022/08/05 11:28:23;;;;;;;4.82;0.50;;;25.60;92.50;;;;;;4880557;29;20494;-82
2022/08/05 11:31:09;;;;;;;6.90;0.75;;;25.50;92.00;;;;;;4881210;29;20056;-81
2022/08/05 11:34:06;;;;;;;6.57;0.60;;;25.20;92.00;;;;;;4879638;29;20064;-79
2022/08/05 11:36:52;;;;;;;3.10;0.47;;;24.90;92.20;;;;;;4878445;29;20568;-81
2022/08/05 11:39:50;;;;;;;3.03;0.50;;;25.10;92.80;;;;;;4893029;29;20068;-81
2022/08/05 11:42:44;;;;;;;5.30;0.60;;;25.30;91.70;;;;;;4891042;29;20167;-83
2022/08/05 11:45:31;;;;;;;2.75;0.40;;;25.30;92.50;;;;;;4897349;29;20056;-85
2022/08/05 11:48:18;;;;;;;3.13;0.32;;;25.60;92.30;;;;;;4897083;29;20084;-83
2022/08/05 11:51:06;;;;;;;1.33;0.40;;;25.30;91.30;;;;;;4898165;29;20048;-84
2022/08/05 11:53:53;;;;;;;3.55;0.60;;;25.70;91.30;;;;;;4896558;29;20473;-84
2022/08/05 11:56:51;;;;;;;4.45;0.60;;;25.90;91.20;;;;;;4899000;29;20055;-86
2022/08/05 11:59:37;;;;;;;6.38;0.63;;;25.90;90.70;;;;;;4881995;29;20489;-80
2022/08/05 12:02:26;;;;;;;4.97;0.38;;;25.60;90.80;;;;;;4899237;29;20048;-79
2022/08/05 12:05:25;;;;;;;2.30;0.45;;;25.10;90.60;;;;;;4884346;29;20128;-83
2022/08/05 12:08:12;;;;;;;4.15;0.50;;;24.60;91.70;;;;;;4895636;29;20055;-84
2022/08/05 12:11:01;;;;;;;5.10;0.60;;;24.40;92.20;;;;;;4896570;29;20143;-80
2022/08/05 12:13:57;;;;;;;5.40;0.70;;;24.20;92.20;;;;;;4895843;29;20067;-80
2022/08/05 12:16:46;;;;;;;3.45;0.60;;;24.50;93.00;;;;;;4882531;29;20048;-82
2022/08/05 12:19:43;;;;;;;6.55;0.68;;;24.20;92.80;;;;;;4898403;29;20059;-81
2022/08/05 12:22:30;;;;;;;5.00;0.40;;;24.00;93.20;;;;;;4870231;29;20091;-81
2022/08/05 12:25:16;;;;;;;1.63;0.30;;;23.80;92.70;;;;;;4895864;29;20087;-81
2022/08/05 12:28:03;;;;;;;2.65;0.45;;;24.00;92.60;;;;;;4868617;29;20060;-80
2022/08/05 12:30:49;;;;;;;2.08;0.30;;;24.80;92.70;;;;;;4900618;29;20049;-81
2022/08/05 12:33:36;;;;;;;4.00;0.95;;;24.80;92.40;;;;;;4899968;29;20065;-79
2022/08/05 12:36:23;;;;;;;4.35;0.85;;;24.10;91.80;;;;;;4898007;29;20111;-80
2022/08/05 12:39:10;;;;;;;5.53;0.45;;;23.60;91.80;;;;;;4870490;29;20052;-82
2022/08/05 12:42:00;;;;;;;2.55;0.47;;;23.40;92.10;;;;;;4900231;29;20108;-83
2022/08/05 12:44:48;;;;;;;5.63;0.85;;;23.20;92.20;;;;;;4899186;29;20057;-81
2022/08/05 12:47:35;;;;;;;5.00;0.80;;;22.80;92.00;;;;;;4883112;29;20041;-82
2022/08/05 12:50:22;;;;;;;4.80;0.52;;;23.00;92.20;;;;;;4896931;29;20056;-82
2022/08/05 12:53:17;;;;;;;3.47;0.35;;;23.30;91.40;;;;;;4897606;29;20131;-79
2022/08/05 12:56:15;;;;;;;6.32;0.80;;;23.30;91.70;;;;;;4907905;29;20040;-81
2022/08/05 12:59:18;;;;;;;2.75;0.40;;;23.30;91.70;;;;;;4916676;29;20048;-79
2022/08/05 13:02:10;;;;;;;3.78;0.93;;;23.60;91.90;;;;;;4919352;29;20040;-86
2022/08/05 13:04:56;;;;;;;2.45;0.30;;;23.90;91.10;;;;;;4913859;29;20055;-79
2022/08/05 13:07:45;;;;;;;2.28;0.30;;;24.30;91.00;;;;;;4914690;28;20086;-77
2022/08/05 13:10:32;;;;;;;2.55;0.32;;;24.70;90.40;;;;;;4915215;29;20044;-80
2022/08/05 13:13:20;;;;;;;4.68;0.63;;;24.00;90.00;;;;;;4915434;29;20076;-81
2022/08/05 13:16:14;;;;;;;4.40;0.50;;;23.80;90.70;;;;;;4913712;29;20195;-78
2022/08/05 13:19:00;;;;;;;2.88;0.40;;;23.60;90.30;;;;;;4918375;29;20048;-80
2022/08/05 13:21:47;;;;;;;11.77;0.68;;;23.30;90.90;;;;;;4913994;29;20531;-80
2022/08/05 13:24:33;;;;;;;13.80;1.67;;;22.90;91.50;;;;;;4900173;29;20055;-80
2022/08/05 13:27:27;;;;;;;11.30;1.52;;;22.60;92.90;;;;;;4915511;29;20424;-82
2022/08/05 13:30:16;;;;;;;13.32;1.77;;;21.90;94.00;;;;;;4915762;29;20052;-84
2022/08/05 13:33:04;;;;;;;10.98;2.15;;;21.30;95.00;;;;;;4902067;29;20052;-84
2022/08/05 13:35:50;;;;;;;13.20;1.75;;;20.90;95.20;;;;;;4916735;29;20048;-80
2022/08/05 13:38:36;;;;;;;15.20;2.72;;;20.80;95.50;;;;;;4904844;29;20125;-80
2022/08/05 13:41:23;;;;;;;6.85;1.30;;;20.80;96.20;;;;;;4918699;29;20131;-83
2022/08/05 13:44:09;;;;;;;6.28;1.05;;;20.90;95.80;;;;;;4918462;28;20515;-83
2022/08/05 13:46:56;;;;;;;9.02;0.90;;;20.90;95.60;;;;;;4919361;29;20103;-75
2022/08/05 13:49:43;;;;;;;6.57;1.00;;;21.00;95.50;;;;;;4918693;29;20056;-77
2022/08/05 13:52:29;;;;;;;4.78;0.98;;;20.90;95.00;;;;;;4918185;29;20044;-81
2022/08/05 13:55:16;;;;;;;3.83;0.70;;;21.10;95.00;;;;;;4900317;29;20067;-80
2022/08/05 13:58:02;;;;;;;4.55;0.47;;;21.30;94.90;;;;;;4909156;29;20052;-85
2022/08/05 14:00:48;;;;;;;7.70;0.90;;;21.30;94.50;;;;;;4896217;29;20049;-84
2022/08/05 14:03:34;;;;;;;3.22;0.90;;;21.10;94.70;;;;;;4897188;29;20092;-80
2022/08/05 14:06:21;;;;;;;2.53;0.30;;;21.10;94.20;;;;;;4897042;29;20040;-82
2022/08/05 14:09:07;;;;;;;3.45;0.63;;;21.20;94.00;;;;;;4899311;29;20156;-80
2022/08/05 14:11:53;;;;;;;6.25;0.90;;;22.10;93.20;;;;;;4898863;29;20477;-83
2022/08/05 14:14:40;;;;;;;3.72;0.68;;;23.10;92.40;;;;;;4896722;29;20060;-80
2022/08/05 14:17:26;;;;;;;7.70;0.90;;;23.70;91.80;;;;;;4898723;29;20099;-83
2022/08/05 14:20:13;;;;;;;4.68;0.70;;;24.80;90.20;;;;;;4904566;29;20060;-81
2022/08/05 14:22:59;;;;;;;8.85;0.68;;;25.90;85.80;;;;;;4899109;29;20067;-83
2022/08/05 14:25:46;;;;;;;5.03;0.60;;;26.80;82.20;;;;;;4900120;29;20053;-82
2022/08/05 14:28:32;;;;;;;4.25;0.73;;;27.50;78.80;;;;;;4899320;29;20057;-83
2022/08/05 14:31:19;;;;;;;6.35;0.82;;;28.10;75.60;;;;;;4898903;29;20056;-88
2022/08/05 14:34:05;;;;;;;3.97;0.40;;;28.30;73.70;;;;;;4899673;29;20049;-88
2022/08/05 14:36:51;;;;;;;8.82;0.55;;;28.20;72.70;;;;;;4900245;29;20045;-81
2022/08/05 14:39:37;;;;;;;3.15;0.65;;;28.40;70.50;;;;;;4897537;29;20104;-80